SESA/SNC METAR and TAF weather

Enter ICAO airport designator
Station Type Date Time Source
SESA METAR 2022/12/03 23:00 UTC NOAA

SESA 032300Z 25009KT 9999 SCT008 BKN013 22/19 Q1011 RMK A2987


Station Type Date Time Source
SESA Decoded METAR 2022/12/03 23:00 UTC NOAA

Salinas / General Ulpiano Paez, Ecuador (SESA) 02-12S 080-59W 8M
Dec 03, 2022 - 06:00 PM EST / 2022.12.03 2300 UTC
Wind: from the WSW (250 degrees) at 10 MPH (9 KT):0
Visibility: greater than 7 mile(s):0
Sky conditions: mostly cloudy
Temperature: 71 F (22 C)
Dew Point: 66 F (19 C)
Relative Humidity: 83%
Pressure (altimeter): 29.85 in. Hg (1011 hPa)
ob: SESA 032300Z 25009KT 9999 SCT008 BKN013 22/19 Q1011 RMK A2987
cycle: 23

Station Type Date Time Source
SESA TAF UTC NOAA

Error!

Example: see airport list